Time,TemperatureF,DewpointF,PressureIn,WindDirection,WindDirectionDegrees,WindSpeedMPH,WindSpeedGustMPH,Humidity,HourlyPrecipIn,Conditions,Clouds,dailyrainin,SoftwareType,DateUTC
2013-03-18 00:53:00,72.0,-99.9,30.09,SE,130,7.0,8.0,-999,-99.99,,,-99.99,,2013-03-18 04:53:00,
2013-03-18 01:52:00,72.0,-99.9,30.07,SE,140,10.0,11.0,-999,-99.99,,,-99.99,,2013-03-18 05:52:00,
2013-03-18 02:53:00,72.0,-99.9,30.04,SE,140,10.0,13.0,-999,-99.99,,,-99.99,,2013-03-18 06:53:00,
2013-03-18 03:53:00,72.0,-99.9,30.03,SSE,150,9.0,10.0,-999,-99.99,,,-99.99,,2013-03-18 07:53:00,
2013-03-18 04:53:00,72.0,-99.9,30.02,SE,140,8.0,9.0,-999,-99.99,,,-99.99,,2013-03-18 08:53:00,
2013-03-18 05:53:00,72.0,-99.9,30.02,SE,140,10.0,11.0,-999,-99.99,,,-99.99,,2013-03-18 09:53:00,
2013-03-18 06:53:00,72.0,-99.9,30.02,SE,140,10.0,13.0,-999,-99.99,,,-99.99,,2013-03-18 10:53:00,
2013-03-18 07:53:00,72.0,-99.9,30.03,SE,140,13.0,15.0,-999,-99.99,,,-99.99,,2013-03-18 11:53:00,
2013-03-18 08:52:00,72.0,-99.9,30.05,SE,140,11.0,13.0,-999,-99.99,,,-99.99,,2013-03-18 12:52:00,
2013-03-18 09:52:00,72.0,-99.9,30.06,SE,130,8.0,9.0,-999,-99.99,,,-99.99,,2013-03-18 13:52:00,
2013-03-18 10:52:00,72.0,-99.9,30.06,SE,140,13.0,14.0,-999,-99.99,,,-99.99,,2013-03-18 14:52:00,
2013-03-18 11:52:00,73.0,-99.9,30.07,SE,130,13.0,15.0,-999,-99.99,,,-99.99,,2013-03-18 15:52:00,
2013-03-18 12:53:00,73.0,-99.9,30.05,SSE,150,13.0,15.0,-999,-99.99,,,-99.99,,2013-03-18 16:53:00,
2013-03-18 13:52:00,73.0,-99.9,30.05,SE,130,7.0,9.0,-999,-99.99,,,-99.99,,2013-03-18 17:52:00,
2013-03-18 14:52:00,74.0,-99.9,30.01,SE,130,10.0,13.0,-999,-99.99,,,-99.99,,2013-03-18 18:52:00,
2013-03-18 15:52:00,74.0,-99.9,29.98,SSE,160,14.0,16.0,-999,-99.99,,,-99.99,,2013-03-18 19:52:00,
2013-03-18 16:53:00,74.0,-99.9,30.01,West,260,1.0,2.0,-999,-99.99,,,-99.99,,2013-03-18 20:53:00,
2013-03-18 17:53:00,74.0,-99.9,29.99,North,0,0.0,2.0,-999,-99.99,,,-99.99,,2013-03-18 21:53:00,
2013-03-18 18:53:00,73.0,-99.9,30.01,West,270,5.0,7.0,-999,-99.99,,,-99.99,,2013-03-18 22:53:00,
2013-03-18 19:53:00,72.0,-99.9,30.00,North,360,3.0,5.0,-999,-99.99,,,-99.99,,2013-03-18 23:53:00,
2013-03-18 20:53:00,73.0,-99.9,29.98,East,80,3.0,5.0,-999,-99.99,,,-99.99,,2013-03-19 00:53:00,
2013-03-18 21:53:00,73.0,-99.9,29.99,North,0,0.0,0.0,-999,-99.99,,,-99.99,,2013-03-19 01:53:00,
2013-03-18 22:53:00,73.0,-99.9,30.00,East,80,2.0,2.0,-999,-99.99,,,-99.99,,2013-03-19 02:53:00,
2013-03-18 22:54:00,73.0,-99.9,30.00,East,90,2.0,2.0,-999,-99.99,,,-99.99,,2013-03-19 02:54:00,